Historyczne dane pomiarowe

Dodano dane terminowe – wersja testowa.

Dane z okresu 1951-2019

Wersja bazy: 1.34 [2019-03-16, lista zmian], aktualizacja planowana na 2019-04-15

Dane meteo z obszaru Polski uzyskane na podstawie danych udostępnionych przez Instytut Meteorologii i Gospodarki Wodnej – Państwowy Instytut Badawczy.

 

Wybierz Datę:    

       

TemperaturaWilgotnośćWiatrCiśnienieOpadyŚniegCzas trwania zjawisk
 Stacja t tx tn tng RH VA  wxwx mslp ppp RRR   cm mm wxwxwxwxwxwxwx
1956-11-09 -0.2 4.1 -3.1 -5.3 72.3- 0.0 3.3---- 0.0------------
1956-11-08 1.4 4.3 -0.1 0.4 88.3- 5.3 2.3---- 0.0------------
1956-11-07 2.8 4.4 1.9 2.3 98.5- 8.0 1.7---- 7.0------------
1956-11-06 4.1 6.7 1.4 -1.0 90.8- 6.0 5.3---- 15.3------------
1956-11-05 5.9 9.4 3.5 -4.7 79.0- 4.7 6.3---- 0.4------------
1956-11-04 4.2 6.9 -0.9 -2.9 90.8- 7.7 2.0---- 0.2------------
1956-11-03 1.2 5.2 -4.8 -9.3 78.3- 5.3 1.3---- 0.3------------
1956-11-02 1.3 3.1 0.0 -0.2 98.8- 5.3 0.3---- 0.5------------
1956-11-01 -0.7 2.9 -9.7-14.1 73.0- 5.7 3.0---- 0.5------------
1956-10-31 -4.4 1.7 -6.9 -5.7 77.0- 1.0 3.7---- 0.0------------
1956-10-30 2.0 3.9 1.1 2.1 93.0- 8.0 3.7---- 1.8------------
1956-10-29 4.9 9.0 3.3 5.8 97.5- 8.0 2.3---- 13.1------------
1956-10-28 8.8 9.8 7.2 7.7 98.5- 8.0 3.7---- 2.1------------
1956-10-27 7.4 8.0 3.9 1.6 97.3- 8.0 4.0---- 29.5------------
1956-10-26 6.1 9.5 4.2 3.3 85.5- 5.3 0.7---- 4.1------------
1956-10-25 10.8 15.6 7.0 6.4 76.3- 8.0 3.3---- 0.0------------
1956-10-24 13.3 17.5 8.5 6.4 78.0- 6.0 4.0---- 0.0------------
1956-10-23 10.8 15.0 8.6 8.6 83.5- 2.7 3.3---- 0.0------------
1956-10-22 12.2 15.8 7.3 2.3 87.3- 5.7 3.7---- 0.0------------
1956-10-21 11.3 17.4 8.2 5.9 90.0- 3.3 2.3---- 0.0------------
1956-10-20 11.9 14.6 7.1 4.7 89.3- 8.0 2.3---- 0.0------------
1956-10-19 12.0 14.8 9.2 12.4 85.0- 6.7 4.0---- 0.0------------
1956-10-18 13.4 14.3 9.8 8.2 94.8- 8.0 3.3---- 7.5------------
1956-10-17 10.2 16.4 2.1 -1.9 75.8- 3.0 3.7---- 0.0------------
1956-10-16 6.5 15.0 -3.7 -6.9 74.5- 0.0 0.7---- 0.0------------
1956-10-15 3.4 12.0 -1.9 -5.6 89.8- 0.3 0.7---- 0.0------------
1956-10-14 9.5 14.3 5.8 9.8 82.3- 4.0 4.7---- 0.8------------
1956-10-13 11.9 13.6 9.0 8.4 75.8- 7.7 9.3---- 0.3------------
1956-10-12 10.2 14.5 5.5 2.6 80.0- 6.3 4.7---- 0.0------------
1956-10-11 8.7 13.5 -0.6 -4.6 80.5- 3.3 3.7---- 0.0------------
1956-10-10 3.0 10.6 -0.7 -5.0 85.0- 3.0 1.0---- 0.0------------
1956-10-09 8.0 10.5 5.4 4.7 96.3- 7.7 2.7---- 4.0------------
1956-10-08 6.1 9.6 0.5 -4.0 79.0- 5.7 3.7---- 1.0------------
1956-10-07 6.4 10.5 4.1 2.3 82.5- 5.0 4.3---- 0.0------------
1956-10-06 6.2 8.6 3.7 1.6 85.8- 5.7 2.3---- 0.1------------
1956-10-05 7.8 11.5 6.8 5.2 84.5- 7.0 2.3---- 2.2------------
1956-10-04 10.5 15.2 5.6 1.6 86.5- 3.7 3.3---- 0.2------------
1956-10-03 12.6 16.5 9.1 13.0 87.0- 4.7 3.7---- 0.0------------
1956-10-02 17.2 23.5 9.4 5.8 85.3- 5.0 3.3---- 18.6------------
1956-10-01 14.9 22.6 9.2 8.3 87.3- 3.3 2.3---- 0.0------------
1956-09-30 11.7 19.2 8.7 7.8 88.8- 3.7 1.7---- 0.0------------
1956-09-29 13.7 18.0 12.3 12.4 92.8- 5.0 4.0---- 0.1------------
1956-09-28 15.3 18.3 12.0 10.6 86.3- 6.3 5.7---- 0.0------------
1956-09-27 16.8 21.0 13.4 10.4 77.3- 4.3 4.3---- 1.2------------
1956-09-26 15.0 23.7 6.6 2.5 75.3- 0.0 0.7---- 0.0------------
1956-09-25 12.8 23.5 4.3 0.0 81.5- 0.0 1.3---- 0.0------------
1956-09-24 12.8 19.1 5.1 -0.3 61.3- 0.0 4.7---- 0.0------------
1956-09-23 15.1 20.7 7.6 2.6 66.3- 0.0 3.3---- 0.0------------
1956-09-22 13.7 21.6 2.5 -0.2 69.8- 0.0 3.0---- 0.0------------
1956-09-21 11.1 20.5 1.6 -0.4 79.0- 0.0 1.0---- 0.0------------
1956-09-20 8.7 18.9 1.9 -0.9 85.8- 1.0 1.0---- 0.0------------
1956-09-19 9.7 17.5 0.6 -1.5 79.5- 1.3 1.7---- 0.0------------
1956-09-18 7.9 16.2 1.8 0.1 89.0- 4.0 0.3---- 0.0------------
1956-09-17 9.7 13.0 6.8 9.3 95.5- 5.3 4.7---- 4.3------------
1956-09-16 11.5 17.0 2.7 -0.2 77.5- 5.7 1.3---- 1.7------------
1956-09-15 10.5 16.5 6.5 6.9 85.3- 3.0 2.3---- 0.0------------
1956-09-14 11.5 17.2 7.2 2.6 85.5- 3.3 1.3---- 0.0------------
1956-09-13 11.8 16.5 7.9 6.2 79.3- 5.7 7.0---- 0.6------------
1956-09-12 11.1 15.7 8.7 11.2 84.0- 3.7 6.3---- 6.8------------
1956-09-11 15.9 20.0 12.2 11.8 87.5- 5.0 2.3---- 6.9------------
264.6 ms

 

Źródłem pochodzenia danych jest Instytut Meteorologii i Gospodarki Wodnej – Państwowy Instytut Badawczy. Dane Instytutu Meteorologii i Gospodarki Wodnej – Państwowego Instytutu Badawczego zostały przetworzone.

Dane źródłowe można odnaleźć na stronie https://dane.imgw.pl